Time;durP1;ratioP1;P1;durP2;ratioP2;P2;SDS_P1;SDS_P2;PMS_P1;PMS_P2;Temp;Humidity;BMP_temperature;BMP_pressure;BME280_temperature;BME280_humidity;BME280_pressure;Samples;Min_cycle;Max_cycle;Signal;HPM_P1;HPM_P2
2022/05/19 07:08:29;;;;;;;5.57;3.49;;;;;;;;;;12846662;23;15409276;-83
2022/05/19 07:13:59;;;;;;;4.70;3.22;;;;;;;;;;12881947;23;20194;-81
2022/05/19 07:25:08;;;;;;;3.75;3.35;;;;;;;;;;12805627;23;20005;-82
2022/05/19 07:30:41;;;;;;;7.38;4.30;;;;;;;;;;12742258;23;20012;-82
2022/05/19 07:47:07;;;;;;;6.40;3.08;;;;;;;;;;12719113;23;20026;-81
2022/05/19 07:52:08;;;;;;;7.32;3.55;;;;;;;;;;12747344;23;20033;-81
2022/05/19 07:57:09;;;;;;;11.02;3.58;;;;;;;;;;12747417;23;20012;-81
2022/05/19 08:02:12;;;;;;;6.20;3.88;;;;;;;;;;12746327;23;20385;-81
2022/05/19 08:07:13;;;;;;;3.70;3.10;;;;;;;;;;12746454;23;20012;-80
2022/05/19 08:15:34;;;;;;;4.38;3.42;;;;;;;;;;12746961;23;20382;-80
2022/05/19 08:17:41;;;;;;;5.60;3.40;;;;;;;;;;12746684;23;20008;-80
2022/05/19 08:22:43;;;;;;;5.05;4.13;;;;;;;;;;12742005;23;20434;-81
2022/05/19 08:27:47;;;;;;;5.05;3.42;;;;;;;;;;12740325;23;20016;-79
2022/05/19 08:32:48;;;;;;;4.15;3.20;;;;;;;;;;12716293;23;20008;-80
2022/05/19 08:37:49;;;;;;;8.27;4.28;;;;;;;;;;12740464;23;20016;-80
2022/05/19 08:42:53;;;;;;;6.45;3.38;;;;;;;;;;12742197;23;20008;-80
2022/05/19 08:48:01;;;;;;;8.27;3.38;;;;;;;;;;12743544;23;20076;-80
2022/05/19 08:53:03;;;;;;;5.38;3.30;;;;;;;;;;12742825;23;20346;-80
2022/05/19 08:58:19;;;;;;;9.82;3.72;;;;;;;;;;12720299;23;20500;-80
2022/05/19 09:03:23;;;;;;;6.13;3.60;;;;;;;;;;12756651;23;20013;-83
2022/05/19 09:08:27;;;;;;;23.40;17.83;;;;;;;;;;12748579;23;20009;-82
2022/05/19 09:13:37;;;;;;;4.65;3.45;;;;;;;;;;12749267;23;20092;-80
2022/05/19 09:18:44;;;;;;;5.85;3.30;;;;;;;;;;12749617;23;20013;-80
2022/05/19 09:23:47;;;;;;;5.15;3.30;;;;;;;;;;12744902;23;20008;-83
2022/05/19 09:28:54;;;;;;;4.47;3.33;;;;;;;;;;12744034;23;20468;-80
2022/05/19 09:33:57;;;;;;;3.95;3.20;;;;;;;;;;12744517;23;20333;-81
2022/05/19 09:39:02;;;;;;;4.70;3.35;;;;;;;;;;12746155;23;20406;-82
2022/05/19 09:44:05;;;;;;;5.93;3.20;;;;;;;;;;12751425;23;20002;-79
2022/05/19 09:49:25;;;;;;;7.65;3.40;;;;;;;;;;12748717;23;20110;-82
2022/05/19 09:54:30;;;;;;;5.07;3.97;;;;;;;;;;12750835;23;20335;-81
2022/05/19 09:59:36;;;;;;;5.85;4.18;;;;;;;;;;12747854;23;20061;-81
2022/05/19 10:04:41;;;;;;;5.22;3.47;;;;;;;;;;12744518;23;20312;-81
2022/05/19 10:09:43;;;;;;;6.75;4.15;;;;;;;;;;12744614;23;20351;-81
2022/05/19 10:14:44;;;;;;;3.95;3.40;;;;;;;;;;12745642;23;20036;-80
2022/05/19 10:19:45;;;;;;;5.32;3.38;;;;;;;;;;12744834;23;20012;-81
2022/05/19 10:25:01;;;;;;;6.20;3.65;;;;;;;;;;12745427;23;20006;-81
2022/05/19 10:35:48;;;;;;;4.00;3.60;;;;;;;;;;12759587;23;20013;-81
2022/05/19 10:40:55;;;;;;;5.45;3.40;;;;;;;;;;12699212;23;20412;-82
2022/05/19 10:45:59;;;;;;;4.13;3.38;;;;;;;;;;12769042;23;20048;-82
2022/05/19 10:51:19;;;;;;;32.03;29.08;;;;;;;;;;12753971;23;20073;-81
2022/05/19 10:56:23;;;;;;;5.43;3.85;;;;;;;;;;12727534;23;20037;-81
2022/05/19 11:01:34;;;;;;;4.82;3.58;;;;;;;;;;12751956;23;20006;-82
2022/05/19 11:06:35;;;;;;;5.05;3.25;;;;;;;;;;12760992;23;20005;-78
2022/05/19 11:11:58;;;;;;;5.50;3.70;;;;;;;;;;12756965;23;20037;-81
2022/05/19 11:17:24;;;;;;;;;;;;;;;;;;;;;
2022/05/19 11:22:30;;;;;;;5.07;3.80;;;;;;;;;;12753318;23;20013;-83
2022/05/19 11:27:54;;;;;;;5.20;3.20;;;;;;;;;;12741050;23;20141;-82
2022/05/19 11:44:57;;;;;;;4.45;4.03;;;;;;;;;;12443885;23;20150;-82
2022/05/19 11:55:28;;;;;;;4.13;3.50;;;;;;;;;;12445322;23;20019;-82
2022/05/19 12:00:31;;;;;;;5.68;4.15;;;;;;;;;;12420988;23;20037;-80
2022/05/19 12:05:35;;;;;;;4.57;3.58;;;;;;;;;;12421325;23;20012;-81
2022/05/19 12:10:39;;;;;;;5.93;3.92;;;;;;;;;;12746719;23;20342;-80
2022/05/19 12:15:50;;;;;;;4.35;3.75;;;;;;;;;;12746205;23;20009;-83
2022/05/19 12:21:09;;;;;;;5.85;3.60;;;;;;;;;;12747428;23;20319;-82
2022/05/19 12:26:19;;;;;;;;;;;;;;;;;;12721596;23;20012;-82
2022/05/19 12:37:34;;;;;;;5.72;3.40;;;;;;;;;;12747184;23;20014;-81
2022/05/19 12:42:41;;;;;;;3.95;3.47;;;;;;;;;;12749045;23;20076;-82
2022/05/19 12:48:20;;;;;;;6.38;4.00;;;;;;;;;;12749183;23;20334;-82
2022/05/19 12:53:24;;;;;;;4.70;3.40;;;;;;;;;;12752897;23;20001;-82
2022/05/19 12:58:42;;;;;;;5.20;3.47;;;;;;;;;;12770364;23;20009;-79
2022/05/19 13:03:49;;;;;;;4.55;4.10;;;;;;;;;;12748632;23;20005;-82
2022/05/19 13:08:54;;;;;;;5.15;3.60;;;;;;;;;;12753958;23;20009;-81
2022/05/19 13:13:59;;;;;;;5.68;3.83;;;;;;;;;;12721476;23;20009;-80
2022/05/19 13:19:02;;;;;;;21.08;3.63;;;;;;;;;;12746125;23;20085;-80
2022/05/19 13:24:06;;;;;;;10.32;2.55;;;;;;;;;;12744551;23;20089;-78
2022/05/19 13:35:23;;;;;;;13.07;2.30;;;;;;;;;;12759786;23;20065;-85
2022/05/19 13:40:43;;;;;;;8.85;2.05;;;;;;;;;;12776335;23;20018;-83
2022/05/19 13:46:32;;;;;;;5.43;2.08;;;;;;;;;;12779720;23;20037;-85
2022/05/19 13:51:49;;;;;;;3.95;1.23;;;;;;;;;;12749751;23;20009;-85
2022/05/19 13:57:03;;;;;;;3.53;1.42;;;;;;;;;;12764897;23;20009;-85
2022/05/19 14:02:07;;;;;;;6.07;1.90;;;;;;;;;;12763521;23;20008;-85
2022/05/19 14:07:27;;;;;;;7.03;1.55;;;;;;;;;;12755072;23;20029;-87
2022/05/19 14:13:19;;;;;;;6.35;1.70;;;;;;;;;;12745763;23;20077;-86
2022/05/19 14:18:43;;;;;;;4.05;1.20;;;;;;;;;;12716351;23;20005;-84
2022/05/19 14:24:06;;;;;;;5.22;1.63;;;;;;;;;;12783893;23;20101;-85
2022/05/19 14:29:33;;;;;;;4.80;1.40;;;;;;;;;;12766535;23;20008;-85
2022/05/19 14:34:39;;;;;;;6.32;1.50;;;;;;;;;;12695836;23;20397;-85
2022/05/19 14:51:17;;;;;;;4.93;1.80;;;;;;;;;;12762846;23;20014;-84
2022/05/19 14:56:20;;;;;;;3.05;1.30;;;;;;;;;;12759745;23;20009;-84
2022/05/19 15:01:22;;;;;;;3.78;1.50;;;;;;;;;;12757030;23;20295;-83
2022/05/19 15:06:23;;;;;;;3.35;1.42;;;;;;;;;;12757662;23;20002;-82
2022/05/19 15:11:25;;;;;;;4.93;1.70;;;;;;;;;;12758818;23;20005;-82
2022/05/19 15:16:26;;;;;;;3.70;1.35;;;;;;;;;;12767678;23;20025;-82
2022/05/19 15:21:28;;;;;;;4.53;1.50;;;;;;;;;;12770754;23;20002;-83
2022/05/19 15:26:28;;;;;;;4.97;1.67;;;;;;;;;;12770091;23;20049;-82
2022/05/19 15:31:30;;;;;;;6.68;1.40;;;;;;;;;;12752191;23;20029;-83
2022/05/19 15:36:31;;;;;;;2.45;1.15;;;;;;;;;;12754095;23;20005;-82
2022/05/19 15:41:32;;;;;;;7.28;3.25;;;;;;;;;;12755627;23;20005;-81
2022/05/19 15:46:33;;;;;;;4.28;2.33;;;;;;;;;;12757791;23;20001;-82
2022/05/19 15:51:35;;;;;;;5.07;1.90;;;;;;;;;;12752488;23;20096;-82
2022/05/19 15:56:36;;;;;;;5.65;2.03;;;;;;;;;;12754463;23;20018;-82
2022/05/19 16:01:37;;;;;;;3.20;1.90;;;;;;;;;;12752103;23;20025;-81
2022/05/19 16:06:39;;;;;;;4.82;2.20;;;;;;;;;;12755210;23;20012;-81
2022/05/19 16:11:40;;;;;;;4.00;2.00;;;;;;;;;;12758585;23;20383;-83
2022/05/19 16:16:41;;;;;;;3.92;1.60;;;;;;;;;;12768296;23;20013;-82
